Cape Cod — WBK3243 — position and weather

sailwx.info

Track history (hours):
 
Tides and Currents Weather Stations Pressure Air Temp Water Temp Dewpoint Dewpoint Depression Visibility Wind Speed Wind Dir Waves Ship Positions

Cape Cod

Owner: MORAN TOWING CORPORATION, New Canaan, CT. More information available from US FCC via Universal Licensing System and Coast Guard Vessel Documentation Center.

Last reported at 2018-Jan-23 16:00 UTC. Time now 2018-Jan-23 16:17 UTC.
Position N 39°53' W 075°11'.

Length 33 m; draft 4.8 m.

Type: Tug. MMSI: 366939770.

Date/timePositionNaut miles runAvg speedWind from/ knotsBaromVisibWave heightAir tempDewpointWater temp
2018-Jan-23 16:00N 39°53' W 075°11'1 1.8
2018-Jan-23 15:30N 39°53' W 075°12'1 1.3
2018-Jan-23 15:01N 39°54' W 075°12'4 7.3
2018-Jan-23 14:30N 39°51' W 075°15'5 9.6
2018-Jan-23 14:00N 39°50' W 075°21'7 9.0
2018-Jan-23 13:12N 39°46' W 075°29'211.3
2018-Jan-23 12:59N 39°43' W 075°30'0 0.0
2018-Jan-21 11:49N 39°43' W 075°30'311.1
2018-Jan-21 11:30N 39°46' W 075°28'4 8.8
2018-Jan-21 11:00N 39°49' W 075°24'3 6.6
2018-Jan-21 10:29N 39°51' W 075°20'0 0.0
2018-Jan-21 10:01N 39°51' W 075°20'0 0.9
2018-Jan-21 09:30N 39°51' W 075°21'4 3.1
2018-Jan-21 08:10N 39°48' W 075°25'0 0.9
2018-Jan-21 07:55N 39°48' W 075°25'0 0.4
2018-Jan-21 07:27N 39°48' W 075°25'1 2.8
2018-Jan-21 07:00N 39°49' W 075°24'3 6.3
2018-Jan-21 06:30N 39°51' W 075°20'4 7.6
2018-Jan-21 06:01N 39°51' W 075°15'4 8.3
2018-Jan-21 05:31N 39°53' W 075°11'0 0.1
2018-Jan-21 05:01N 39°53' W 075°11'0 0.0
2018-Jan-21 04:31N 39°53' W 075°11'0 0.0
2018-Jan-21 04:00N 39°53' W 075°11'0 0.0
2018-Jan-21 03:31N 39°53' W 075°11'0 0.0
2018-Jan-21 03:01N 39°53' W 075°11'0 0.0
2018-Jan-21 02:30N 39°53' W 075°11'0 0.0
2018-Jan-21 02:00N 39°53' W 075°11'0 0.0
2018-Jan-21 01:30N 39°53' W 075°11'0 0.0
2018-Jan-21 01:01N 39°53' W 075°11'2 3.8
2018-Jan-21 00:31N 39°54' W 075°08'3 5.0
2018-Jan-21 00:00N 39°56' W 075°08'0 0.5
2018-Jan-20 23:31N 39°56' W 075°08'3 6.3
2018-Jan-20 23:00N 39°53' W 075°09'1 2.3
2018-Jan-20 22:30N 39°53' W 075°11'0 0.0
2018-Jan-20 22:00N 39°53' W 075°11'0 0.0
2018-Jan-20 21:30N 39°53' W 075°11'0 0.0
2018-Jan-20 21:00N 39°53' W 075°11'0 0.0
2018-Jan-20 20:31N 39°53' W 075°11'0 0.0
2018-Jan-20 20:01N 39°53' W 075°11'0 0.0
2018-Jan-20 19:31N 39°53' W 075°11'0 0.0
2018-Jan-20 19:01N 39°53' W 075°11'0 0.0
2018-Jan-20 18:30N 39°53' W 075°11'0 0.0
2018-Jan-20 18:00N 39°53' W 075°11'0 0.0
2018-Jan-20 17:30N 39°53' W 075°11'0 0.0
2018-Jan-20 17:01N 39°53' W 075°11'0 0.0
2018-Jan-20 16:30N 39°53' W 075°11'0 0.0
2018-Jan-20 16:00N 39°53' W 075°11'0 0.0
2018-Jan-20 15:30N 39°53' W 075°11'0 0.0
2018-Jan-20 15:00N 39°53' W 075°11'0 0.0
2018-Jan-20 14:30N 39°53' W 075°11'0 0.0
2018-Jan-20 14:00N 39°53' W 075°11'0 0.0
2018-Jan-20 13:31N 39°53' W 075°11'0 0.0
2018-Jan-20 13:01N 39°53' W 075°11'0 0.0
2018-Jan-20 12:31N 39°53' W 075°11'0 0.0
2018-Jan-20 12:00N 39°53' W 075°11'0 0.0
2018-Jan-20 11:31N 39°53' W 075°11'0 0.0
2018-Jan-20 11:01N 39°53' W 075°11'0 0.0
2018-Jan-20 10:31N 39°53' W 075°11'0 0.0
2018-Jan-20 10:01N 39°53' W 075°11'0 0.0
2018-Jan-20 09:31N 39°53' W 075°11'0 0.0
2018-Jan-20 09:00N 39°53' W 075°11'0 0.0
2018-Jan-20 08:31N 39°53' W 075°11'0 0.0
2018-Jan-20 08:00N 39°53' W 075°11'0 0.0
2018-Jan-20 07:30N 39°53' W 075°11'0 0.0
2018-Jan-20 07:01N 39°53' W 075°11'0 0.0
2018-Jan-20 06:31N 39°53' W 075°11'0 0.0
2018-Jan-20 06:00N 39°53' W 075°11'0 0.0
2018-Jan-20 05:31N 39°53' W 075°11'0 0.0
2018-Jan-20 05:00N 39°53' W 075°11'0 0.0
2018-Jan-20 04:31N 39°53' W 075°11'0 0.0
2018-Jan-20 04:00N 39°53' W 075°11'0 0.0
2018-Jan-20 03:31N 39°53' W 075°11'0 0.0
2018-Jan-20 03:00N 39°53' W 075°11'0 0.0
2018-Jan-20 02:31N 39°53' W 075°11'0 0.0
2018-Jan-20 02:01N 39°53' W 075°11'0 0.0
2018-Jan-20 01:30N 39°53' W 075°11'0 0.0
2018-Jan-20 01:00N 39°53' W 075°11'0 0.0
2018-Jan-20 00:31N 39°53' W 075°11'0 0.0
2018-Jan-20 00:00N 39°53' W 075°11'0 0.0
2018-Jan-19 23:30N 39°53' W 075°11'0 0.0
2018-Jan-19 23:01N 39°53' W 075°11'0 0.0
2018-Jan-19 22:31N 39°53' W 075°11'0 0.0
2018-Jan-19 22:00N 39°53' W 075°11'0 0.0
2018-Jan-19 21:30N 39°53' W 075°11'0 0.0
2018-Jan-19 21:00N 39°53' W 075°11'0 0.0
2018-Jan-19 20:30N 39°53' W 075°11'0 0.0
2018-Jan-19 20:00N 39°53' W 075°11'0 0.0
2018-Jan-19 19:30N 39°53' W 075°11'0 0.0
2018-Jan-19 19:00N 39°53' W 075°11'0 0.0
2018-Jan-19 18:30N 39°53' W 075°11'0 0.0
2018-Jan-19 18:00N 39°53' W 075°11'0 0.0
2018-Jan-19 17:31N 39°53' W 075°11'0 0.0
2018-Jan-19 17:00N 39°53' W 075°11'0 0.0
2018-Jan-19 16:31N 39°53' W 075°11'0 0.0
2018-Jan-19 16:01N 39°53' W 075°11'0 0.0
2018-Jan-19 15:31N 39°53' W 075°11'0 0.0
2018-Jan-19 15:01N 39°53' W 075°11'0 0.0
2018-Jan-19 14:30N 39°53' W 075°11'0 0.0
2018-Jan-19 14:01N 39°53' W 075°11'0 0.0
2018-Jan-19 13:31N 39°53' W 075°11'0 0.0
2018-Jan-19 13:01N 39°53' W 075°11'0 0.0
2018-Jan-19 12:30N 39°53' W 075°11'0 0.0
2018-Jan-19 12:01N 39°53' W 075°11'0 0.0
2018-Jan-19 11:30N 39°53' W 075°11'1 1.9
2018-Jan-19 11:01N 39°53' W 075°10'2 3.6
2018-Jan-19 10:31N 39°53' W 075°12'4 8.4
2018-Jan-19 10:01N 39°51' W 075°17'4 8.8
2018-Jan-19 09:30N 39°50' W 075°22'4 8.1
2018-Jan-19 09:00N 39°47' W 075°27'5 9.4
2018-Jan-19 08:30N 39°44' W 075°30'1 1.3
2018-Jan-19 08:00N 39°43' W 075°31'0 0.2
2018-Jan-19 07:30N 39°43' W 075°31'0 0.0
2018-Jan-19 07:00N 39°43' W 075°31'2 4.2
2018-Jan-19 06:30N 39°45' W 075°30'4 7.8
2018-Jan-19 06:00N 39°48' W 075°26'3 7.0
2018-Jan-19 05:31N 39°50' W 075°22'4 7.0
2018-Jan-19 05:01N 39°51' W 075°18'4 7.7
2018-Jan-19 04:31N 39°52' W 075°13'2 4.8
2018-Jan-19 04:00N 39°53' W 075°11'0 0.0
2018-Jan-19 03:30N 39°53' W 075°11'0 0.0
2018-Jan-19 03:00N 39°53' W 075°11'0 0.0
2018-Jan-19 02:31N 39°53' W 075°11'0 0.0
2018-Jan-19 02:00N 39°53' W 075°11'0 0.0
2018-Jan-19 01:31N 39°53' W 075°11'0 0.0
2018-Jan-19 01:00N 39°53' W 075°11'0 0.0
2018-Jan-19 00:30N 39°53' W 075°11'0 0.0
2018-Jan-19 00:00N 39°53' W 075°11'0 0.0
2018-Jan-18 23:30N 39°53' W 075°11'0 0.0
2018-Jan-18 23:00N 39°53' W 075°11'0 0.0
2018-Jan-18 22:30N 39°53' W 075°11'0 0.0
2018-Jan-18 22:01N 39°53' W 075°11'0 0.0
2018-Jan-18 21:30N 39°53' W 075°11'0 0.0
2018-Jan-18 21:00N 39°53' W 075°11'0 0.0
2018-Jan-18 20:07N 39°53' W 075°11'0 0.0
2018-Jan-18 20:00N 39°53' W 075°11'0 0.0
2018-Jan-18 19:30N 39°53' W 075°11'0 0.0
2018-Jan-18 19:01N 39°53' W 075°11'0 0.0
2018-Jan-18 18:31N 39°53' W 075°11'0 0.0
2018-Jan-18 18:00N 39°53' W 075°11'0 0.0
2018-Jan-18 17:30N 39°53' W 075°11'0 0.0
2018-Jan-18 17:01N 39°53' W 075°11'0 0.0
2018-Jan-18 16:31N 39°53' W 075°11'0 0.0
2018-Jan-18 16:01N 39°53' W 075°11'0 0.0
2018-Jan-18 15:30N 39°53' W 075°11'0 0.0
2018-Jan-18 15:01N 39°53' W 075°11'0 0.0
2018-Jan-18 14:31N 39°53' W 075°11'0 0.0
2018-Jan-18 14:00N 39°53' W 075°11'0 0.0
2018-Jan-18 13:30N 39°53' W 075°11'0 0.0
2018-Jan-18 13:00N 39°53' W 075°11'0 0.0
2018-Jan-18 12:31N 39°53' W 075°11'1 1.8
2018-Jan-18 12:01N 39°53' W 075°10'0 0.0
2018-Jan-18 11:31N 39°53' W 075°10'0 0.0
2018-Jan-18 11:00N 39°53' W 075°10'1 2.7
2018-Jan-18 10:30N 39°53' W 075°11'1 2.0
2018-Jan-18 10:01N 39°54' W 075°12'0 0.0
2018-Jan-18 09:31N 39°54' W 075°12'0 0.0
2018-Jan-18 09:01N 39°54' W 075°12'1 1.7
2018-Jan-18 08:31N 39°53' W 075°12'1 1.5
2018-Jan-18 08:01N 39°53' W 075°11'1 1.8
2018-Jan-18 07:31N 39°53' W 075°12'612.0
2018-Jan-18 07:00N 39°51' W 075°19'611.4
2018-Jan-18 06:30N 39°48' W 075°25'612.6
2018-Jan-18 06:01N 39°43' W 075°30'713.3
2018-Jan-18 05:30N 39°37' W 075°35'713.4
2018-Jan-18 05:01N 39°31' W 075°33'613.0
2018-Jan-18 04:31N 39°24' W 075°30'714.3
2018-Jan-18 04:01N 39°19' W 075°24'714.2
2018-Jan-18 03:31N 39°14' W 075°18'9 3.5
2018-Jan-18 00:52N 39°06' W 075°12'8 8.7
2018-Jan-18 00:00N 39°12' W 075°17'1 9.3
2018-Jan-17 23:55N 39°13' W 075°18'  
Track history (hours):
 
Tides and Currents Weather Stations Pressure Air Temp Water Temp Dewpoint Dewpoint Depression Visibility Wind Speed Wind Dir Waves Ship Positions

Cape Cod

Owner: MORAN TOWING CORPORATION, New Canaan, CT. More information available from US FCC via Universal Licensing System and Coast Guard Vessel Documentation Center.

Last reported at 2018-Jan-23 16:00 UTC. Time now 2018-Jan-23 16:17 UTC.
Position N 39°53' W 075°11'.

Length 33 m; draft 4.8 m.

Type: Tug. MMSI: 366939770.

Date/timePositionNaut miles runAvg speedWind from/ knotsBaromVisibWave heightAir tempDewpointWater temp
2018-Jan-23 16:00N 39°53' W 075°11'1 1.8
2018-Jan-23 15:30N 39°53' W 075°12'1 1.3
2018-Jan-23 15:01N 39°54' W 075°12'4 7.3
2018-Jan-23 14:30N 39°51' W 075°15'5 9.6
2018-Jan-23 14:00N 39°50' W 075°21'7 9.0
2018-Jan-23 13:12N 39°46' W 075°29'211.3
2018-Jan-23 12:59N 39°43' W 075°30'0 0.0
2018-Jan-21 11:49N 39°43' W 075°30'311.1
2018-Jan-21 11:30N 39°46' W 075°28'4 8.8
2018-Jan-21 11:00N 39°49' W 075°24'3 6.6
2018-Jan-21 10:29N 39°51' W 075°20'0 0.0
2018-Jan-21 10:01N 39°51' W 075°20'0 0.9
2018-Jan-21 09:30N 39°51' W 075°21'4 3.1
2018-Jan-21 08:10N 39°48' W 075°25'0 0.9
2018-Jan-21 07:55N 39°48' W 075°25'0 0.4
2018-Jan-21 07:27N 39°48' W 075°25'1 2.8
2018-Jan-21 07:00N 39°49' W 075°24'3 6.3
2018-Jan-21 06:30N 39°51' W 075°20'4 7.6
2018-Jan-21 06:01N 39°51' W 075°15'4 8.3
2018-Jan-21 05:31N 39°53' W 075°11'0 0.1
2018-Jan-21 05:01N 39°53' W 075°11'0 0.0
2018-Jan-21 04:31N 39°53' W 075°11'0 0.0
2018-Jan-21 04:00N 39°53' W 075°11'0 0.0
2018-Jan-21 03:31N 39°53' W 075°11'0 0.0
2018-Jan-21 03:01N 39°53' W 075°11'0 0.0
2018-Jan-21 02:30N 39°53' W 075°11'0 0.0
2018-Jan-21 02:00N 39°53' W 075°11'0 0.0
2018-Jan-21 01:30N 39°53' W 075°11'0 0.0
2018-Jan-21 01:01N 39°53' W 075°11'2 3.8
2018-Jan-21 00:31N 39°54' W 075°08'3 5.0
2018-Jan-21 00:00N 39°56' W 075°08'0 0.5
2018-Jan-20 23:31N 39°56' W 075°08'3 6.3
2018-Jan-20 23:00N 39°53' W 075°09'1 2.3
2018-Jan-20 22:30N 39°53' W 075°11'0 0.0
2018-Jan-20 22:00N 39°53' W 075°11'0 0.0
2018-Jan-20 21:30N 39°53' W 075°11'0 0.0
2018-Jan-20 21:00N 39°53' W 075°11'0 0.0
2018-Jan-20 20:31N 39°53' W 075°11'0 0.0
2018-Jan-20 20:01N 39°53' W 075°11'0 0.0
2018-Jan-20 19:31N 39°53' W 075°11'0 0.0
2018-Jan-20 19:01N 39°53' W 075°11'0 0.0
2018-Jan-20 18:30N 39°53' W 075°11'0 0.0
2018-Jan-20 18:00N 39°53' W 075°11'0 0.0
2018-Jan-20 17:30N 39°53' W 075°11'0 0.0
2018-Jan-20 17:01N 39°53' W 075°11'0 0.0
2018-Jan-20 16:30N 39°53' W 075°11'0 0.0
2018-Jan-20 16:00N 39°53' W 075°11'0 0.0
2018-Jan-20 15:30N 39°53' W 075°11'0 0.0
2018-Jan-20 15:00N 39°53' W 075°11'0 0.0
2018-Jan-20 14:30N 39°53' W 075°11'0 0.0
2018-Jan-20 14:00N 39°53' W 075°11'0 0.0
2018-Jan-20 13:31N 39°53' W 075°11'0 0.0
2018-Jan-20 13:01N 39°53' W 075°11'0 0.0
2018-Jan-20 12:31N 39°53' W 075°11'0 0.0
2018-Jan-20 12:00N 39°53' W 075°11'0 0.0
2018-Jan-20 11:31N 39°53' W 075°11'0 0.0
2018-Jan-20 11:01N 39°53' W 075°11'0 0.0
2018-Jan-20 10:31N 39°53' W 075°11'0 0.0
2018-Jan-20 10:01N 39°53' W 075°11'0 0.0
2018-Jan-20 09:31N 39°53' W 075°11'0 0.0
2018-Jan-20 09:00N 39°53' W 075°11'0 0.0
2018-Jan-20 08:31N 39°53' W 075°11'0 0.0
2018-Jan-20 08:00N 39°53' W 075°11'0 0.0
2018-Jan-20 07:30N 39°53' W 075°11'0 0.0
2018-Jan-20 07:01N 39°53' W 075°11'0 0.0
2018-Jan-20 06:31N 39°53' W 075°11'0 0.0
2018-Jan-20 06:00N 39°53' W 075°11'0 0.0
2018-Jan-20 05:31N 39°53' W 075°11'0 0.0
2018-Jan-20 05:00N 39°53' W 075°11'0 0.0
2018-Jan-20 04:31N 39°53' W 075°11'0 0.0
2018-Jan-20 04:00N 39°53' W 075°11'0 0.0
2018-Jan-20 03:31N 39°53' W 075°11'0 0.0
2018-Jan-20 03:00N 39°53' W 075°11'0 0.0
2018-Jan-20 02:31N 39°53' W 075°11'0 0.0
2018-Jan-20 02:01N 39°53' W 075°11'0 0.0
2018-Jan-20 01:30N 39°53' W 075°11'0 0.0
2018-Jan-20 01:00N 39°53' W 075°11'0 0.0
2018-Jan-20 00:31N 39°53' W 075°11'0 0.0
2018-Jan-20 00:00N 39°53' W 075°11'0 0.0
2018-Jan-19 23:30N 39°53' W 075°11'0 0.0
2018-Jan-19 23:01N 39°53' W 075°11'0 0.0
2018-Jan-19 22:31N 39°53' W 075°11'0 0.0
2018-Jan-19 22:00N 39°53' W 075°11'0 0.0
2018-Jan-19 21:30N 39°53' W 075°11'0 0.0
2018-Jan-19 21:00N 39°53' W 075°11'0 0.0
2018-Jan-19 20:30N 39°53' W 075°11'0 0.0
2018-Jan-19 20:00N 39°53' W 075°11'0 0.0
2018-Jan-19 19:30N 39°53' W 075°11'0 0.0
2018-Jan-19 19:00N 39°53' W 075°11'0 0.0
2018-Jan-19 18:30N 39°53' W 075°11'0 0.0
2018-Jan-19 18:00N 39°53' W 075°11'0 0.0
2018-Jan-19 17:31N 39°53' W 075°11'0 0.0
2018-Jan-19 17:00N 39°53' W 075°11'0 0.0
2018-Jan-19 16:31N 39°53' W 075°11'0 0.0
2018-Jan-19 16:01N 39°53' W 075°11'0 0.0
2018-Jan-19 15:31N 39°53' W 075°11'0 0.0
2018-Jan-19 15:01N 39°53' W 075°11'0 0.0
2018-Jan-19 14:30N 39°53' W 075°11'0 0.0
2018-Jan-19 14:01N 39°53' W 075°11'0 0.0
2018-Jan-19 13:31N 39°53' W 075°11'0 0.0
2018-Jan-19 13:01N 39°53' W 075°11'0 0.0
2018-Jan-19 12:30N 39°53' W 075°11'0 0.0
2018-Jan-19 12:01N 39°53' W 075°11'0 0.0
2018-Jan-19 11:30N 39°53' W 075°11'1 1.9
2018-Jan-19 11:01N 39°53' W 075°10'2 3.6
2018-Jan-19 10:31N 39°53' W 075°12'4 8.4
2018-Jan-19 10:01N 39°51' W 075°17'4 8.8
2018-Jan-19 09:30N 39°50' W 075°22'4 8.1
2018-Jan-19 09:00N 39°47' W 075°27'5 9.4
2018-Jan-19 08:30N 39°44' W 075°30'1 1.3
2018-Jan-19 08:00N 39°43' W 075°31'0 0.2
2018-Jan-19 07:30N 39°43' W 075°31'0 0.0
2018-Jan-19 07:00N 39°43' W 075°31'2 4.2
2018-Jan-19 06:30N 39°45' W 075°30'4 7.8
2018-Jan-19 06:00N 39°48' W 075°26'3 7.0
2018-Jan-19 05:31N 39°50' W 075°22'4 7.0
2018-Jan-19 05:01N 39°51' W 075°18'4 7.7
2018-Jan-19 04:31N 39°52' W 075°13'2 4.8
2018-Jan-19 04:00N 39°53' W 075°11'0 0.0
2018-Jan-19 03:30N 39°53' W 075°11'0 0.0
2018-Jan-19 03:00N 39°53' W 075°11'0 0.0
2018-Jan-19 02:31N 39°53' W 075°11'0 0.0
2018-Jan-19 02:00N 39°53' W 075°11'0 0.0
2018-Jan-19 01:31N 39°53' W 075°11'0 0.0
2018-Jan-19 01:00N 39°53' W 075°11'0 0.0
2018-Jan-19 00:30N 39°53' W 075°11'0 0.0
2018-Jan-19 00:00N 39°53' W 075°11'0 0.0
2018-Jan-18 23:30N 39°53' W 075°11'0 0.0
2018-Jan-18 23:00N 39°53' W 075°11'0 0.0
2018-Jan-18 22:30N 39°53' W 075°11'0 0.0
2018-Jan-18 22:01N 39°53' W 075°11'0 0.0
2018-Jan-18 21:30N 39°53' W 075°11'0 0.0
2018-Jan-18 21:00N 39°53' W 075°11'0 0.0
2018-Jan-18 20:07N 39°53' W 075°11'0 0.0
2018-Jan-18 20:00N 39°53' W 075°11'0 0.0
2018-Jan-18 19:30N 39°53' W 075°11'0 0.0
2018-Jan-18 19:01N 39°53' W 075°11'0 0.0
2018-Jan-18 18:31N 39°53' W 075°11'0 0.0
2018-Jan-18 18:00N 39°53' W 075°11'0 0.0
2018-Jan-18 17:30N 39°53' W 075°11'0 0.0
2018-Jan-18 17:01N 39°53' W 075°11'0 0.0
2018-Jan-18 16:31N 39°53' W 075°11'0 0.0
2018-Jan-18 16:01N 39°53' W 075°11'0 0.0
2018-Jan-18 15:30N 39°53' W 075°11'0 0.0
2018-Jan-18 15:01N 39°53' W 075°11'0 0.0
2018-Jan-18 14:31N 39°53' W 075°11'0 0.0
2018-Jan-18 14:00N 39°53' W 075°11'0 0.0
2018-Jan-18 13:30N 39°53' W 075°11'0 0.0
2018-Jan-18 13:00N 39°53' W 075°11'0 0.0
2018-Jan-18 12:31N 39°53' W 075°11'1 1.8
2018-Jan-18 12:01N 39°53' W 075°10'0 0.0
2018-Jan-18 11:31N 39°53' W 075°10'0 0.0
2018-Jan-18 11:00N 39°53' W 075°10'1 2.7
2018-Jan-18 10:30N 39°53' W 075°11'1 2.0
2018-Jan-18 10:01N 39°54' W 075°12'0 0.0
2018-Jan-18 09:31N 39°54' W 075°12'0 0.0
2018-Jan-18 09:01N 39°54' W 075°12'1 1.7
2018-Jan-18 08:31N 39°53' W 075°12'1 1.5
2018-Jan-18 08:01N 39°53' W 075°11'1 1.8
2018-Jan-18 07:31N 39°53' W 075°12'612.0
2018-Jan-18 07:00N 39°51' W 075°19'611.4
2018-Jan-18 06:30N 39°48' W 075°25'612.6
2018-Jan-18 06:01N 39°43' W 075°30'713.3
2018-Jan-18 05:30N 39°37' W 075°35'713.4
2018-Jan-18 05:01N 39°31' W 075°33'613.0
2018-Jan-18 04:31N 39°24' W 075°30'714.3
2018-Jan-18 04:01N 39°19' W 075°24'714.2
2018-Jan-18 03:31N 39°14' W 075°18'9 3.5
2018-Jan-18 00:52N 39°06' W 075°12'8 8.7
2018-Jan-18 00:00N 39°12' W 075°17'1 9.3
2018-Jan-17 23:55N 39°13' W 075°18'  

Dump ship's entire track history